createdAt,value
2019-01-21T00:01:04.426Z,109.17
2019-01-21T00:03:34.843Z,101.30
2019-01-21T00:06:05.357Z,127.20
2019-01-21T00:08:35.795Z,99.77
2019-01-21T00:11:06.440Z,109.97
2019-01-21T00:13:36.755Z,105.80
2019-01-21T00:16:07.185Z,124.73
2019-01-21T00:18:37.626Z,101.07
2019-01-21T00:21:08.113Z,123.27
2019-01-21T00:23:38.658Z,113.37
2019-01-21T00:26:09.135Z,100.33
2019-01-21T00:28:39.749Z,110.67
2019-01-21T00:31:10.206Z,117.77
2019-01-21T00:33:40.697Z,104.07
2019-01-21T00:36:11.029Z,109.73
2019-01-21T00:38:41.378Z,118.43
2019-01-21T00:41:12.112Z,112.10
2019-01-21T00:43:42.511Z,111.83
2019-01-21T00:46:13.170Z,111.73
2019-01-21T00:48:43.536Z,117.67
2019-01-21T00:51:13.967Z,113.30
2019-01-21T00:53:44.296Z,103.17
2019-01-21T00:56:14.690Z,108.47
2019-01-21T00:58:44.975Z,110.10
2019-01-21T01:01:15.428Z,112.40
2019-01-21T01:03:45.805Z,94.03
2019-01-21T01:06:16.266Z,102.13
2019-01-21T01:08:46.716Z,103.53
2019-01-21T01:11:26.354Z,96.27
2019-01-21T01:13:56.926Z,102.13
2019-01-21T01:16:27.454Z,88.70
2019-01-21T01:18:57.913Z,104.80
2019-01-21T01:21:28.329Z,107.53
2019-01-21T01:23:58.727Z,91.07
2019-01-21T01:26:29.225Z,99.07
2019-01-21T01:28:59.719Z,94.83
2019-01-21T01:31:30.250Z,96.37
2019-01-21T01:34:00.614Z,116.27
2019-01-21T01:36:31.229Z,102.13
2019-01-21T01:39:01.540Z,99.33
2019-01-21T01:41:33.226Z,102.33
2019-01-21T01:44:03.672Z,109.63
2019-01-21T01:46:40.792Z,89.87
2019-01-21T01:49:11.277Z,102.30
2019-01-21T01:51:41.739Z,92.47
2019-01-21T01:54:12.119Z,102.23
2019-01-21T01:56:42.562Z,103.23
2019-01-21T01:59:13.277Z,109.30
2019-01-21T02:01:43.862Z,97.90
2019-01-21T02:04:14.443Z,102.57
2019-01-21T02:06:44.906Z,95.57
2019-01-21T02:09:15.296Z,104.07
2019-01-21T02:11:45.734Z,100.30
2019-01-21T02:14:16.079Z,105.50
2019-01-21T02:16:46.566Z,98.57
2019-01-21T02:19:17.547Z,90.73
2019-01-21T02:21:48.805Z,99.47
2019-01-21T02:24:19.855Z,90.87
2019-01-21T02:27:02.708Z,96.00
2019-01-21T02:29:44.924Z,96.50
2019-01-21T02:32:42.868Z,93.93
2019-01-21T02:35:24.221Z,90.60
2019-01-21T02:38:47.564Z,96.87
2019-01-21T02:41:29.452Z,94.57
2019-01-21T02:44:44.188Z,103.70
2019-01-21T02:47:47.985Z,106.60
2019-01-21T02:50:44.789Z,95.83
2019-01-21T02:53:40.768Z,88.80
2019-01-21T02:57:00.514Z,98.60
2019-01-21T03:00:08.676Z,92.40
2019-01-21T03:03:20.817Z,96.97
2019-01-21T03:06:19.175Z,87.67
2019-01-21T03:09:38.531Z,100.90
2019-01-21T03:13:03.431Z,91.53
2019-01-21T03:16:09.906Z,92.53
2019-01-21T03:19:31.677Z,88.57
2019-01-21T03:22:45.169Z,89.80
2019-01-21T03:25:44.532Z,93.53
2019-01-21T03:28:38.411Z,100.73
2019-01-21T03:31:57.916Z,94.53
2019-01-21T03:35:18.365Z,102.70
2019-01-21T03:38:41.890Z,84.43
2019-01-21T03:41:27.931Z,109.20
2019-01-21T03:44:57.503Z,105.03
2019-01-21T03:47:43.230Z,92.60
2019-01-21T03:50:58.103Z,94.30
2019-01-21T03:54:07.559Z,85.40
2019-01-21T03:57:06.238Z,106.33
2019-01-21T03:59:58.541Z,93.40
2019-01-21T04:03:05.762Z,85.07
2019-01-21T04:06:07.406Z,97.77
2019-01-21T04:09:19.457Z,89.73
2019-01-21T04:12:27.138Z,92.20
2019-01-21T04:15:47.928Z,101.87
2019-01-21T04:18:38.464Z,89.47
2019-01-21T04:21:55.543Z,93.20
2019-01-21T04:24:54.032Z,92.87
2019-01-21T04:28:26.602Z,97.47
2019-01-21T04:31:54.540Z,84.33
2019-01-21T04:34:53.163Z,84.87
2019-01-21T04:38:13.925Z,97.43
2019-01-21T04:41:24.037Z,84.63
2019-01-21T04:44:21.174Z,92.07
2019-01-21T04:47:31.138Z,88.40
2019-01-21T04:50:37.139Z,92.20
2019-01-21T04:54:09.754Z,88.03
2019-01-21T04:57:16.731Z,89.30
2019-01-21T05:00:22.463Z,91.77
2019-01-21T05:04:05.510Z,89.80
2019-01-21T05:07:19.992Z,87.07
2019-01-21T05:10:14.223Z,93.30
2019-01-21T05:13:24.227Z,94.10
2019-01-21T05:16:43.522Z,86.37
2019-01-21T05:19:50.094Z,92.90
2019-01-21T05:22:57.007Z,95.27
2019-01-21T05:26:06.093Z,98.37
2019-01-21T05:29:15.618Z,93.67
2019-01-21T05:32:05.074Z,110.87
2019-01-21T05:35:28.870Z,269.48
2019-01-21T05:38:12.253Z,100.53
2019-01-21T05:41:20.070Z,82.33
2019-01-21T05:44:14.092Z,115.70
2019-01-21T05:47:21.534Z,83.70
2019-01-21T05:50:45.137Z,76.40
2019-01-21T05:53:47.509Z,76.47
2019-01-21T05:56:55.338Z,82.60
2019-01-21T06:00:08.033Z,68.93
2019-01-21T06:03:19.871Z,82.17
2019-01-21T06:06:31.910Z,78.40
2019-01-21T06:09:22.048Z,99.03
2019-01-21T06:12:24.174Z,83.93
2019-01-21T06:15:44.649Z,80.43
2019-01-21T06:18:57.455Z,81.87
2019-01-21T06:22:07.062Z,86.43
2019-01-21T06:25:25.588Z,81.40
2019-01-21T06:28:15.668Z,83.83
2019-01-21T06:31:21.853Z,81.50
2019-01-21T06:34:16.500Z,86.27
2019-01-21T06:37:24.039Z,86.47
2019-01-21T06:40:53.912Z,82.67
2019-01-21T06:43:56.839Z,94.63
2019-01-21T06:47:07.894Z,83.10
2019-01-21T06:50:19.313Z,74.70
2019-01-21T06:53:20.834Z,88.23
2019-01-21T06:56:17.094Z,74.07
2019-01-21T06:59:41.108Z,85.10
2019-01-21T07:03:07.733Z,80.23
2019-01-21T07:06:03.378Z,80.37
2019-01-21T07:09:13.775Z,91.60
2019-01-21T07:12:10.718Z,85.43
2019-01-21T07:15:23.763Z,91.07
2019-01-21T07:18:34.819Z,84.17
2019-01-21T07:21:36.297Z,75.40
2019-01-21T07:24:26.088Z,80.77
2019-01-21T07:27:52.754Z,88.60
2019-01-21T07:30:43.329Z,82.53
2019-01-21T07:33:40.684Z,83.30
2019-01-21T07:36:49.705Z,92.73
2019-01-21T07:40:08.170Z,79.93
2019-01-21T07:43:17.590Z,86.77
2019-01-21T07:46:26.076Z,83.63
2019-01-21T07:49:55.773Z,93.47
2019-01-21T07:53:25.382Z,97.50
2019-01-21T07:56:41.359Z,92.33
2019-01-21T07:59:48.575Z,97.27
2019-01-21T08:03:07.454Z,85.87
2019-01-21T08:06:00.721Z,99.73
2019-01-21T08:09:07.504Z,96.43
2019-01-21T08:12:37.439Z,84.93
2019-01-21T08:16:06.865Z,89.73
2019-01-21T08:19:10.221Z,90.03
2019-01-21T08:22:26.766Z,104.60
2019-01-21T08:25:43.835Z,92.63
2019-01-21T08:29:11.270Z,86.70
2019-01-21T08:32:18.848Z,97.70
2019-01-21T08:35:35.725Z,101.83
2019-01-21T08:39:05.756Z,96.00
2019-01-21T08:42:19.098Z,102.03
2019-01-21T08:45:34.650Z,98.33
2019-01-21T08:48:46.398Z,104.03
2019-01-21T08:51:43.891Z,108.53
2019-01-21T08:54:31.731Z,113.37
2019-01-21T08:57:43.629Z,106.27
2019-01-21T09:00:36.231Z,107.37
2019-01-21T09:03:50.880Z,112.10
2019-01-21T09:07:00.863Z,99.67
2019-01-21T09:10:33.485Z,94.60
2019-01-21T09:13:50.319Z,90.73
2019-01-21T09:17:10.309Z,97.43
2019-01-21T09:20:25.949Z,85.73
2019-01-21T09:23:22.629Z,97.93
2019-01-21T09:26:51.102Z,107.27
2019-01-21T09:29:47.129Z,105.60
2019-01-21T09:33:00.089Z,95.13
2019-01-21T09:35:58.281Z,105.53
2019-01-21T09:39:12.825Z,106.93
2019-01-21T09:41:56.626Z,88.50
2019-01-21T09:44:37.072Z,106.20
2019-01-21T09:47:07.481Z,99.90
2019-01-21T09:49:43.682Z,105.03
2019-01-21T09:52:20.610Z,105.87
2019-01-21T09:54:52.445Z,101.47
2019-01-21T09:57:28.504Z,98.57
2019-01-21T10:00:01.401Z,124.73
2019-01-21T10:02:39.989Z,109.07
2019-01-21T10:05:18.170Z,97.80
2019-01-21T10:08:37.447Z,108.03
2019-01-21T10:11:48.152Z,116.40
2019-01-21T10:15:15.150Z,106.30
2019-01-21T10:18:29.710Z,107.70
2019-01-21T10:21:42.960Z,104.97
2019-01-21T10:24:52.238Z,105.07
2019-01-21T10:28:00.556Z,105.23
2019-01-21T10:31:18.583Z,101.53
2019-01-21T10:34:33.324Z,101.57
2019-01-21T10:37:58.776Z,111.93
2019-01-21T10:41:04.706Z,102.23
2019-01-21T10:44:11.616Z,106.20
2019-01-21T10:47:44.255Z,121.83
2019-01-21T10:50:58.836Z,104.73
2019-01-21T10:54:12.511Z,111.80
2019-01-21T10:57:20.193Z,109.80
2019-01-21T11:00:43.002Z,104.00
2019-01-21T11:03:54.345Z,107.97
2019-01-21T11:06:57.140Z,98.23
2019-01-21T11:09:55.997Z,89.37
2019-01-21T11:13:13.710Z,91.67
2019-01-21T11:16:17.252Z,92.57
2019-01-21T11:19:29.735Z,90.73
2019-01-21T11:22:26.585Z,81.20
2019-01-21T11:26:01.441Z,72.97
2019-01-21T11:29:11.152Z,61.50
2019-01-21T11:32:25.641Z,60.90
2019-01-21T11:35:20.834Z,65.77
2019-01-21T11:38:47.878Z,59.53
2019-01-21T11:41:54.425Z,54.97
2019-01-21T11:45:14.107Z,59.97
2019-01-21T11:48:27.372Z,63.37
2019-01-21T11:51:40.176Z,58.90
2019-01-21T11:55:00.836Z,70.27
2019-01-21T11:58:23.182Z,64.60
2019-01-21T12:01:09.556Z,65.70
2019-01-21T12:03:55.528Z,56.17
2019-01-21T12:06:37.097Z,60.87
2019-01-21T12:09:54.967Z,60.30
2019-01-21T12:12:37.726Z,58.03
2019-01-21T12:16:02.832Z,58.87
2019-01-21T12:18:54.077Z,57.97
2019-01-21T12:21:59.625Z,60.37
2019-01-21T12:24:41.727Z,61.10
2019-01-21T12:27:55.187Z,57.73
2019-01-21T12:30:51.556Z,60.50
2019-01-21T12:34:05.116Z,63.60
2019-01-21T12:37:05.006Z,60.50
2019-01-21T12:40:15.603Z,61.53
2019-01-21T12:43:19.772Z,63.73
2019-01-21T12:46:32.176Z,57.97
2019-01-21T12:49:36.724Z,60.60
2019-01-21T12:52:53.773Z,64.27
2019-01-21T12:55:49.961Z,58.97
2019-01-21T12:58:48.798Z,55.27
2019-01-21T13:01:50.578Z,69.30
2019-01-21T13:04:54.911Z,66.20
2019-01-21T13:08:12.781Z,56.53
2019-01-21T13:11:02.638Z,55.90
2019-01-21T13:14:17.442Z,60.67
2019-01-21T13:17:38.331Z,58.73
2019-01-21T13:21:02.413Z,58.70
2019-01-21T13:23:47.552Z,55.93
2019-01-21T13:27:02.031Z,57.03
2019-01-21T13:30:05.478Z,54.57
2019-01-21T13:33:20.992Z,54.30
2019-01-21T13:36:36.500Z,56.73
2019-01-21T13:39:46.997Z,61.13
2019-01-21T13:42:24.107Z,54.13
2019-01-21T13:45:23.478Z,58.97
2019-01-21T13:48:14.746Z,52.13
2019-01-21T13:51:13.082Z,48.70
2019-01-21T13:54:11.881Z,44.57
2019-01-21T13:57:08.648Z,55.57
2019-01-21T14:00:27.119Z,50.17
2019-01-21T14:03:25.174Z,46.57
2019-01-21T14:06:32.747Z,49.60
2019-01-21T14:09:42.833Z,47.00
2019-01-21T14:12:57.429Z,44.87
2019-01-21T14:15:53.631Z,49.83
2019-01-21T14:19:01.156Z,48.53
2019-01-21T14:21:54.785Z,50.83
2019-01-21T14:24:49.497Z,41.53
2019-01-21T14:27:40.859Z,40.03
2019-01-21T14:30:57.478Z,50.10
2019-01-21T14:34:13.464Z,47.43
2019-01-21T14:36:56.878Z,46.50
2019-01-21T14:39:50.132Z,45.27
2019-01-21T14:43:08.276Z,49.17
2019-01-21T14:46:10.860Z,45.63
2019-01-21T14:49:16.055Z,47.90
2019-01-21T14:52:13.399Z,46.60
2019-01-21T14:55:28.890Z,49.67
2019-01-21T14:58:36.599Z,46.57
2019-01-21T15:01:35.128Z,48.77
2019-01-21T15:04:34.175Z,56.40
2019-01-21T15:07:41.924Z,51.07
2019-01-21T15:10:51.921Z,49.00
2019-01-21T15:14:02.608Z,45.30
2019-01-21T15:17:02.067Z,46.03
2019-01-21T15:19:51.080Z,52.73
2019-01-21T15:23:17.937Z,54.20
2019-01-21T15:26:16.803Z,51.17
2019-01-21T15:29:36.752Z,45.73
2019-01-21T15:32:36.265Z,48.87
2019-01-21T15:35:33.279Z,54.57
2019-01-21T15:38:18.222Z,53.27
2019-01-21T15:41:17.018Z,51.40
2019-01-21T15:44:13.688Z,58.43
2019-01-21T15:47:25.252Z,55.53
2019-01-21T15:50:33.927Z,56.70
2019-01-21T15:53:49.690Z,56.20
2019-01-21T15:56:58.068Z,63.80
2019-01-21T15:59:53.652Z,57.63
2019-01-21T16:02:51.959Z,63.53
2019-01-21T16:05:45.829Z,59.30
2019-01-21T16:08:22.893Z,50.47
2019-01-21T16:11:46.753Z,60.83
2019-01-21T16:14:46.310Z,57.43
2019-01-21T16:17:32.574Z,61.50
2019-01-21T16:20:38.899Z,64.60
2019-01-21T16:23:44.273Z,56.17
2019-01-21T16:26:33.337Z,63.30
2019-01-21T16:29:29.738Z,63.33
2019-01-21T16:32:38.958Z,63.57
2019-01-21T16:36:03.401Z,60.57
2019-01-21T16:38:43.519Z,63.43
2019-01-21T16:41:43.749Z,70.80
2019-01-21T16:44:16.275Z,65.10
2019-01-21T16:46:47.234Z,60.80
2019-01-21T16:49:18.146Z,62.27
2019-01-21T16:51:48.920Z,69.33
2019-01-21T16:54:23.251Z,71.90
2019-01-21T16:56:53.793Z,59.97
2019-01-21T16:59:29.552Z,58.17
2019-01-21T17:02:19.936Z,64.90
2019-01-21T17:04:50.741Z,72.40
2019-01-21T17:07:22.611Z,59.47
2019-01-21T17:09:54.345Z,70.03
2019-01-21T17:12:28.678Z,69.53
2019-01-21T17:15:02.850Z,74.73
2019-01-21T17:17:33.660Z,73.70
2019-01-21T17:20:05.449Z,86.53
2019-01-21T17:22:43.563Z,81.37
2019-01-21T17:25:16.465Z,70.67
2019-01-21T17:27:47.380Z,76.70
2019-01-21T17:30:18.936Z,69.00
2019-01-21T17:32:50.090Z,62.83
2019-01-21T17:35:21.480Z,71.00
2019-01-21T17:37:52.345Z,76.87
2019-01-21T17:40:23.370Z,66.63
2019-01-21T17:42:54.675Z,61.53
2019-01-21T17:45:25.667Z,62.03
2019-01-21T17:47:57.005Z,69.47
2019-01-21T17:50:27.720Z,64.57
2019-01-21T17:52:58.805Z,64.67
2019-01-21T17:55:29.764Z,78.30
2019-01-21T17:58:02.501Z,62.50
2019-01-21T18:00:34.269Z,70.63
2019-01-21T18:03:05.250Z,64.27
2019-01-21T18:05:36.452Z,63.70
2019-01-21T18:08:07.356Z,69.37
2019-01-21T18:10:42.626Z,67.87
2019-01-21T18:13:14.068Z,61.83
2019-01-21T18:15:45.460Z,58.53
2019-01-21T18:18:18.011Z,61.47
2019-01-21T18:20:49.130Z,63.27
2019-01-21T18:23:20.536Z,60.73
2019-01-21T18:25:51.546Z,54.60
2019-01-21T18:28:23.512Z,58.87
2019-01-21T18:30:54.276Z,60.00
2019-01-21T18:33:25.044Z,64.20
2019-01-21T18:35:55.884Z,58.33
2019-01-21T18:38:27.151Z,56.50
2019-01-21T18:40:57.839Z,58.13
2019-01-21T18:43:28.791Z,58.70
2019-01-21T18:45:59.338Z,53.70
2019-01-21T18:48:30.504Z,57.97
2019-01-21T18:51:01.141Z,52.03
2019-01-21T18:53:32.292Z,65.50
2019-01-21T18:56:03.209Z,63.30
2019-01-21T18:58:34.359Z,60.57
2019-01-21T19:01:14.519Z,56.27
2019-01-21T19:03:45.286Z,61.23
2019-01-21T19:06:17.971Z,66.37
2019-01-21T19:08:49.181Z,69.40
2019-01-21T19:11:20.194Z,93.80
2019-01-21T19:13:51.482Z,61.43
2019-01-21T19:16:22.430Z,72.50
2019-01-21T19:18:55.045Z,74.73
2019-01-21T19:21:28.163Z,60.93
2019-01-21T19:24:03.631Z,66.87
2019-01-21T19:26:34.966Z,72.80
2019-01-21T19:29:06.327Z,73.23
2019-01-21T19:31:37.122Z,69.53
2019-01-21T19:34:10.305Z,71.03
2019-01-21T19:36:41.644Z,67.50
2019-01-21T19:39:12.999Z,76.03
2019-01-21T19:41:44.949Z,67.13
2019-01-21T19:44:15.989Z,59.17
2019-01-21T19:46:46.775Z,59.83
2019-01-21T19:49:17.835Z,74.40
2019-01-21T19:51:49.232Z,62.23
2019-01-21T19:54:20.035Z,73.53
2019-01-21T19:56:51.039Z,67.90
2019-01-21T19:59:25.060Z,60.93
2019-01-21T20:01:56.515Z,59.33
2019-01-21T20:04:27.747Z,62.10
2019-01-21T20:06:58.867Z,57.83
2019-01-21T20:09:29.911Z,51.53
2019-01-21T20:12:00.813Z,60.90
2019-01-21T20:14:31.386Z,58.33
2019-01-21T20:17:02.356Z,59.40
2019-01-21T20:19:36.706Z,62.67
2019-01-21T20:22:09.019Z,62.30
2019-01-21T20:24:41.005Z,58.13
2019-01-21T20:27:13.102Z,51.93
2019-01-21T20:29:44.228Z,53.73
2019-01-21T20:32:15.556Z,54.33
2019-01-21T20:34:46.731Z,63.47
2019-01-21T20:37:21.061Z,61.57
2019-01-21T20:39:52.087Z,61.03
2019-01-21T20:42:23.281Z,53.90
2019-01-21T20:44:55.050Z,60.37
2019-01-21T20:47:25.961Z,63.40
2019-01-21T20:49:57.191Z,64.63
2019-01-21T20:52:29.158Z,65.57
2019-01-21T20:55:00.313Z,52.63
2019-01-21T20:57:31.798Z,54.30
2019-01-21T21:00:03.462Z,57.00
2019-01-21T21:02:34.497Z,54.73
2019-01-21T21:05:08.670Z,57.70
2019-01-21T21:07:41.266Z,65.90
2019-01-21T21:10:13.008Z,74.07
2019-01-21T21:12:44.088Z,60.83
2019-01-21T21:15:26.232Z,66.70
2019-01-21T21:17:56.834Z,66.20
2019-01-21T21:20:27.706Z,67.77
2019-01-21T21:22:58.561Z,75.13
2019-01-21T21:25:30.282Z,75.90
2019-01-21T21:28:01.023Z,72.03
2019-01-21T21:30:33.201Z,66.33
2019-01-21T21:33:04.414Z,66.77
2019-01-21T21:35:52.657Z,52.97
2019-01-21T21:38:23.274Z,57.17
2019-01-21T21:40:55.905Z,60.40
2019-01-21T21:43:26.896Z,52.37
2019-01-21T21:45:59.155Z,59.10
2019-01-21T21:48:31.898Z,57.70
2019-01-21T21:51:02.668Z,61.03
2019-01-21T21:53:33.460Z,52.30
2019-01-21T21:56:04.557Z,57.37
2019-01-21T21:58:36.037Z,56.13
2019-01-21T22:01:06.937Z,49.67
2019-01-21T22:03:37.866Z,60.10
2019-01-21T22:06:09.719Z,56.93
2019-01-21T22:08:41.527Z,56.37
2019-01-21T22:11:13.318Z,56.20
2019-01-21T22:13:44.127Z,56.87
2019-01-21T22:16:15.755Z,68.70
2019-01-21T22:18:47.305Z,61.00
2019-01-21T22:21:17.651Z,58.30
2019-01-21T22:23:48.313Z,56.47
2019-01-21T22:26:18.835Z,53.57
2019-01-21T22:28:49.593Z,60.43
2019-01-21T22:31:20.013Z,55.03
2019-01-21T22:33:50.728Z,61.73
2019-01-21T22:36:21.333Z,56.83
2019-01-21T22:38:52.199Z,62.63
2019-01-21T22:41:23.021Z,56.67
2019-01-21T22:43:53.622Z,61.67
2019-01-21T22:46:24.214Z,58.00
2019-01-21T22:48:54.884Z,61.77
2019-01-21T22:51:25.676Z,56.63
2019-01-21T22:53:56.517Z,58.17
2019-01-21T22:56:27.023Z,50.93
2019-01-21T22:58:57.675Z,54.90
2019-01-21T23:01:31.071Z,48.47
2019-01-21T23:04:02.092Z,55.97
2019-01-21T23:06:32.719Z,54.87
2019-01-21T23:09:05.478Z,57.50
2019-01-21T23:11:36.120Z,61.17
2019-01-21T23:14:07.178Z,66.87
2019-01-21T23:16:37.822Z,58.00
2019-01-21T23:19:08.302Z,61.90
2019-01-21T23:21:39.110Z,53.73
2019-01-21T23:24:10.081Z,54.17
2019-01-21T23:26:40.677Z,62.87
2019-01-21T23:29:11.465Z,63.20
2019-01-21T23:31:41.909Z,50.73
2019-01-21T23:34:12.388Z,57.47
2019-01-21T23:36:43.112Z,51.87
2019-01-21T23:39:13.761Z,59.43
2019-01-21T23:41:44.237Z,56.30
2019-01-21T23:44:14.786Z,59.13
2019-01-21T23:46:46.267Z,57.70
2019-01-21T23:49:17.009Z,59.10
2019-01-21T23:51:47.805Z,62.33
2019-01-21T23:54:18.379Z,59.27
2019-01-21T23:56:48.928Z,57.17
2019-01-21T23:59:19.506Z,61.13
